sensor_id;sensor_type;location;lat;lon;timestamp;temperature;humidity
15700;DHT22;7950;42.744;23.174;2023-03-31T00:01:25;8.90;99.90
15700;DHT22;7950;42.744;23.174;2023-03-31T00:03:54;9.10;99.50
15700;DHT22;7950;42.744;23.174;2023-03-31T00:06:35;9.20;97.30
15700;DHT22;7950;42.744;23.174;2023-03-31T00:09:05;9.40;95.20
15700;DHT22;7950;42.744;23.174;2023-03-31T00:11:37;9.60;94.60
15700;DHT22;7950;42.744;23.174;2023-03-31T00:14:07;9.80;92.80
15700;DHT22;7950;42.744;23.174;2023-03-31T00:16:36;10.00;91.50
15700;DHT22;7950;42.744;23.174;2023-03-31T00:19:06;10.20;90.10
15700;DHT22;7950;42.744;23.174;2023-03-31T00:21:45;10.50;86.70
15700;DHT22;7950;42.744;23.174;2023-03-31T00:24:15;10.70;84.40
15700;DHT22;7950;42.744;23.174;2023-03-31T00:26:44;10.90;82.60
15700;DHT22;7950;42.744;23.174;2023-03-31T00:29:13;11.10;81.10
15700;DHT22;7950;42.744;23.174;2023-03-31T00:31:41;11.20;80.00
15700;DHT22;7950;42.744;23.174;2023-03-31T00:34:10;11.30;78.70
15700;DHT22;7950;42.744;23.174;2023-03-31T00:36:38;11.40;78.10
15700;DHT22;7950;42.744;23.174;2023-03-31T00:39:16;11.50;76.80
15700;DHT22;7950;42.744;23.174;2023-03-31T00:41:46;11.60;76.00
15700;DHT22;7950;42.744;23.174;2023-03-31T00:44:16;11.60;76.50
15700;DHT22;7950;42.744;23.174;2023-03-31T00:46:52;11.60;75.40
15700;DHT22;7950;42.744;23.174;2023-03-31T00:49:26;11.60;75.50
15700;DHT22;7950;42.744;23.174;2023-03-31T00:52:01;11.70;74.50
15700;DHT22;7950;42.744;23.174;2023-03-31T00:54:35;11.70;75.10
15700;DHT22;7950;42.744;23.174;2023-03-31T00:57:06;11.60;75.30
15700;DHT22;7950;42.744;23.174;2023-03-31T00:59:38;11.50;76.20
15700;DHT22;7950;42.744;23.174;2023-03-31T01:02:12;11.40;78.00
15700;DHT22;7950;42.744;23.174;2023-03-31T01:04:44;11.30;79.00
15700;DHT22;7950;42.744;23.174;2023-03-31T01:07:19;11.20;79.40
15700;DHT22;7950;42.744;23.174;2023-03-31T01:09:56;11.10;80.10
15700;DHT22;7950;42.744;23.174;2023-03-31T01:12:27;11.20;80.60
15700;DHT22;7950;42.744;23.174;2023-03-31T01:14:56;11.10;79.90
15700;DHT22;7950;42.744;23.174;2023-03-31T01:17:24;11.10;81.50
15700;DHT22;7950;42.744;23.174;2023-03-31T01:20:05;11.00;83.40
15700;DHT22;7950;42.744;23.174;2023-03-31T01:26:48;10.90;84.70
15700;DHT22;7950;42.744;23.174;2023-03-31T01:29:39;10.90;85.10
15700;DHT22;7950;42.744;23.174;2023-03-31T01:32:55;10.90;84.80
15700;DHT22;7950;42.744;23.174;2023-03-31T01:36:11;10.90;83.30
15700;DHT22;7950;42.744;23.174;2023-03-31T01:39:30;11.00;84.20
15700;DHT22;7950;42.744;23.174;2023-03-31T01:42:28;10.90;85.00
15700;DHT22;7950;42.744;23.174;2023-03-31T01:45:12;10.90;85.00
15700;DHT22;7950;42.744;23.174;2023-03-31T01:47:51;10.90;86.20
15700;DHT22;7950;42.744;23.174;2023-03-31T01:50:28;10.80;87.30
15700;DHT22;7950;42.744;23.174;2023-03-31T01:53:05;10.70;88.00
15700;DHT22;7950;42.744;23.174;2023-03-31T01:55:46;10.60;89.20
15700;DHT22;7950;42.744;23.174;2023-03-31T01:58:24;10.50;90.80
15700;DHT22;7950;42.744;23.174;2023-03-31T02:01:01;10.40;92.00
15700;DHT22;7950;42.744;23.174;2023-03-31T02:03:36;10.40;92.60
15700;DHT22;7950;42.744;23.174;2023-03-31T02:06:13;10.40;92.80
15700;DHT22;7950;42.744;23.174;2023-03-31T02:08:48;10.30;92.40
15700;DHT22;7950;42.744;23.174;2023-03-31T02:11:21;10.50;90.90
15700;DHT22;7950;42.744;23.174;2023-03-31T02:13:53;10.60;90.30
15700;DHT22;7950;42.744;23.174;2023-03-31T02:16:25;10.80;90.40
15700;DHT22;7950;42.744;23.174;2023-03-31T02:18:57;10.80;91.10
15700;DHT22;7950;42.744;23.174;2023-03-31T02:21:31;10.80;92.60
15700;DHT22;7950;42.744;23.174;2023-03-31T02:24:05;10.70;95.10
15700;DHT22;7950;42.744;23.174;2023-03-31T02:26:40;10.60;97.80
15700;DHT22;7950;42.744;23.174;2023-03-31T02:29:25;10.60;99.90
15700;DHT22;7950;42.744;23.174;2023-03-31T02:32:19;10.40;99.90
15700;DHT22;7950;42.744;23.174;2023-03-31T02:34:53;10.30;99.90
15700;DHT22;7950;42.744;23.174;2023-03-31T02:37:22;10.10;99.90
15700;DHT22;7950;42.744;23.174;2023-03-31T02:39:52;10.00;99.90
15700;DHT22;7950;42.744;23.174;2023-03-31T02:42:24;9.90;99.90
15700;DHT22;7950;42.744;23.174;2023-03-31T02:44:59;9.80;99.90
15700;DHT22;7950;42.744;23.174;2023-03-31T02:47:29;9.80;99.90
15700;DHT22;7950;42.744;23.174;2023-03-31T02:49:59;9.70;99.90
15700;DHT22;7950;42.744;23.174;2023-03-31T02:52:44;9.60;99.90
15700;DHT22;7950;42.744;23.174;2023-03-31T02:59:12;9.40;99.90
15700;DHT22;7950;42.744;23.174;2023-03-31T03:02:22;9.30;99.90
15700;DHT22;7950;42.744;23.174;2023-03-31T03:05:27;9.20;99.90
15700;DHT22;7950;42.744;23.174;2023-03-31T03:08:11;9.10;99.90
15700;DHT22;7950;42.744;23.174;2023-03-31T03:10:54;9.10;99.90
15700;DHT22;7950;42.744;23.174;2023-03-31T03:13:34;9.00;99.90
15700;DHT22;7950;42.744;23.174;2023-03-31T03:16:11;9.00;99.90
15700;DHT22;7950;42.744;23.174;2023-03-31T03:18:54;8.90;99.90
15700;DHT22;7950;42.744;23.174;2023-03-31T03:21:24;8.90;99.90
15700;DHT22;7950;42.744;23.174;2023-03-31T03:23:54;8.80;99.90
15700;DHT22;7950;42.744;23.174;2023-03-31T03:26:23;8.90;99.90
15700;DHT22;7950;42.744;23.174;2023-03-31T03:28:54;8.90;99.90
15700;DHT22;7950;42.744;23.174;2023-03-31T03:31:23;8.90;99.90
15700;DHT22;7950;42.744;23.174;2023-03-31T03:34:18;8.90;99.90
15700;DHT22;7950;42.744;23.174;2023-03-31T03:36:46;8.80;99.90
15700;DHT22;7950;42.744;23.174;2023-03-31T03:39:15;8.80;99.90
15700;DHT22;7950;42.744;23.174;2023-03-31T03:41:43;8.70;99.90
15700;DHT22;7950;42.744;23.174;2023-03-31T03:44:12;8.70;99.90
15700;DHT22;7950;42.744;23.174;2023-03-31T03:46:41;8.80;99.90
15700;DHT22;7950;42.744;23.174;2023-03-31T03:49:10;8.80;99.90
15700;DHT22;7950;42.744;23.174;2023-03-31T03:51:40;8.80;99.90
15700;DHT22;7950;42.744;23.174;2023-03-31T03:54:08;8.90;99.90
15700;DHT22;7950;42.744;23.174;2023-03-31T03:56:36;8.90;99.90
15700;DHT22;7950;42.744;23.174;2023-03-31T03:59:05;8.90;99.90
15700;DHT22;7950;42.744;23.174;2023-03-31T04:01:34;8.90;99.90
15700;DHT22;7950;42.744;23.174;2023-03-31T04:04:28;8.90;99.90
15700;DHT22;7950;42.744;23.174;2023-03-31T04:06:58;8.80;99.90
15700;DHT22;7950;42.744;23.174;2023-03-31T04:09:27;8.80;99.90
15700;DHT22;7950;42.744;23.174;2023-03-31T04:12:29;8.80;99.90
15700;DHT22;7950;42.744;23.174;2023-03-31T04:14:58;8.90;99.90
15700;DHT22;7950;42.744;23.174;2023-03-31T04:17:26;8.80;99.90
15700;DHT22;7950;42.744;23.174;2023-03-31T04:20:00;8.90;99.90
15700;DHT22;7950;42.744;23.174;2023-03-31T04:22:33;8.90;99.90
15700;DHT22;7950;42.744;23.174;2023-03-31T04:25:08;8.90;99.90
15700;DHT22;7950;42.744;23.174;2023-03-31T04:27:43;9.00;99.90
15700;DHT22;7950;42.744;23.174;2023-03-31T04:30:17;9.00;99.90
15700;DHT22;7950;42.744;23.174;2023-03-31T04:33:02;9.00;99.90
15700;DHT22;7950;42.744;23.174;2023-03-31T04:35:32;9.10;99.90
15700;DHT22;7950;42.744;23.174;2023-03-31T04:38:18;9.10;99.90
15700;DHT22;7950;42.744;23.174;2023-03-31T04:40:49;9.20;99.90
15700;DHT22;7950;42.744;23.174;2023-03-31T04:43:20;9.10;99.90
15700;DHT22;7950;42.744;23.174;2023-03-31T04:45:49;9.10;99.90
15700;DHT22;7950;42.744;23.174;2023-03-31T04:48:17;9.10;99.90
15700;DHT22;7950;42.744;23.174;2023-03-31T04:50:48;9.10;99.90
15700;DHT22;7950;42.744;23.174;2023-03-31T04:53:18;9.10;99.90
15700;DHT22;7950;42.744;23.174;2023-03-31T04:55:47;9.20;99.90
15700;DHT22;7950;42.744;23.174;2023-03-31T04:58:16;9.30;99.90
15700;DHT22;7950;42.744;23.174;2023-03-31T05:01:10;9.30;99.90
15700;DHT22;7950;42.744;23.174;2023-03-31T05:03:44;9.30;99.90
15700;DHT22;7950;42.744;23.174;2023-03-31T05:06:14;9.40;99.90
15700;DHT22;7950;42.744;23.174;2023-03-31T05:08:45;9.40;99.90
15700;DHT22;7950;42.744;23.174;2023-03-31T05:11:14;9.50;99.90
15700;DHT22;7950;42.744;23.174;2023-03-31T05:14:08;9.50;99.90
15700;DHT22;7950;42.744;23.174;2023-03-31T05:16:36;9.50;99.90
15700;DHT22;7950;42.744;23.174;2023-03-31T05:19:05;9.50;99.90
15700;DHT22;7950;42.744;23.174;2023-03-31T05:21:34;9.50;99.90
15700;DHT22;7950;42.744;23.174;2023-03-31T05:24:04;9.50;99.90
15700;DHT22;7950;42.744;23.174;2023-03-31T05:26:32;9.60;99.90
15700;DHT22;7950;42.744;23.174;2023-03-31T05:29:01;9.60;99.90
15700;DHT22;7950;42.744;23.174;2023-03-31T05:31:29;9.60;99.90
15700;DHT22;7950;42.744;23.174;2023-03-31T05:33:58;9.70;99.90
15700;DHT22;7950;42.744;23.174;2023-03-31T05:36:26;9.70;99.90
15700;DHT22;7950;42.744;23.174;2023-03-31T05:38:55;9.80;99.90
15700;DHT22;7950;42.744;23.174;2023-03-31T05:41:25;9.90;99.90
15700;DHT22;7950;42.744;23.174;2023-03-31T05:43:53;10.00;99.90
15700;DHT22;7950;42.744;23.174;2023-03-31T05:46:22;10.10;99.90
15700;DHT22;7950;42.744;23.174;2023-03-31T05:48:51;10.20;99.90
15700;DHT22;7950;42.744;23.174;2023-03-31T05:51:19;10.30;99.90
15700;DHT22;7950;42.744;23.174;2023-03-31T05:53:48;10.40;99.90
15700;DHT22;7950;42.744;23.174;2023-03-31T05:56:16;10.50;99.90
15700;DHT22;7950;42.744;23.174;2023-03-31T05:58:46;10.60;99.90
15700;DHT22;7950;42.744;23.174;2023-03-31T06:01:16;10.70;99.90
15700;DHT22;7950;42.744;23.174;2023-03-31T06:03:46;10.80;99.90
15700;DHT22;7950;42.744;23.174;2023-03-31T06:06:15;10.80;99.90
15700;DHT22;7950;42.744;23.174;2023-03-31T06:08:46;10.80;99.90
15700;DHT22;7950;42.744;23.174;2023-03-31T06:11:16;10.80;99.90
15700;DHT22;7950;42.744;23.174;2023-03-31T06:13:47;11.00;99.90
15700;DHT22;7950;42.744;23.174;2023-03-31T06:16:17;11.10;99.90
15700;DHT22;7950;42.744;23.174;2023-03-31T06:18:46;11.10;99.90
15700;DHT22;7950;42.744;23.174;2023-03-31T06:21:17;11.10;99.90
15700;DHT22;7950;42.744;23.174;2023-03-31T06:23:47;11.10;99.90
15700;DHT22;7950;42.744;23.174;2023-03-31T06:26:17;11.20;99.90
15700;DHT22;7950;42.744;23.174;2023-03-31T06:28:48;11.30;99.90
15700;DHT22;7950;42.744;23.174;2023-03-31T06:31:21;11.40;99.90
15700;DHT22;7950;42.744;23.174;2023-03-31T06:33:51;11.50;99.90
15700;DHT22;7950;42.744;23.174;2023-03-31T06:36:21;11.50;99.90
15700;DHT22;7950;42.744;23.174;2023-03-31T06:38:49;11.60;99.90
15700;DHT22;7950;42.744;23.174;2023-03-31T06:41:18;11.60;99.90
15700;DHT22;7950;42.744;23.174;2023-03-31T06:43:49;11.70;99.90
15700;DHT22;7950;42.744;23.174;2023-03-31T06:46:18;11.80;99.90
15700;DHT22;7950;42.744;23.174;2023-03-31T06:48:47;11.90;99.90
15700;DHT22;7950;42.744;23.174;2023-03-31T06:51:15;12.00;99.90
15700;DHT22;7950;42.744;23.174;2023-03-31T06:53:44;12.10;99.90
15700;DHT22;7950;42.744;23.174;2023-03-31T06:56:13;12.10;99.90
15700;DHT22;7950;42.744;23.174;2023-03-31T06:58:41;12.10;99.90
15700;DHT22;7950;42.744;23.174;2023-03-31T07:01:11;12.20;99.90
15700;DHT22;7950;42.744;23.174;2023-03-31T07:03:40;12.40;99.90
15700;DHT22;7950;42.744;23.174;2023-03-31T07:09:27;12.80;98.30
15700;DHT22;7950;42.744;23.174;2023-03-31T07:11:56;13.00;96.50
15700;DHT22;7950;42.744;23.174;2023-03-31T07:14:25;13.10;96.90
15700;DHT22;7950;42.744;23.174;2023-03-31T07:16:54;13.20;95.20
15700;DHT22;7950;42.744;23.174;2023-03-31T07:19:23;13.30;94.30
15700;DHT22;7950;42.744;23.174;2023-03-31T07:21:51;13.40;95.00
15700;DHT22;7950;42.744;23.174;2023-03-31T07:24:51;13.50;94.70
15700;DHT22;7950;42.744;23.174;2023-03-31T07:27:19;13.60;94.10
15700;DHT22;7950;42.744;23.174;2023-03-31T07:29:52;13.60;93.20
15700;DHT22;7950;42.744;23.174;2023-03-31T07:32:22;13.70;93.90
15700;DHT22;7950;42.744;23.174;2023-03-31T07:34:54;13.70;93.70
15700;DHT22;7950;42.744;23.174;2023-03-31T07:37:25;13.80;93.90
15700;DHT22;7950;42.744;23.174;2023-03-31T07:39:56;14.00;93.30
15700;DHT22;7950;42.744;23.174;2023-03-31T07:42:25;14.10;92.40
15700;DHT22;7950;42.744;23.174;2023-03-31T07:44:53;14.20;91.80
15700;DHT22;7950;42.744;23.174;2023-03-31T07:47:23;14.30;92.00
15700;DHT22;7950;42.744;23.174;2023-03-31T07:50:17;14.30;91.40
15700;DHT22;7950;42.744;23.174;2023-03-31T07:52:46;14.40;89.50
15700;DHT22;7950;42.744;23.174;2023-03-31T07:55:40;14.40;90.00
15700;DHT22;7950;42.744;23.174;2023-03-31T07:58:08;14.50;90.20
15700;DHT22;7950;42.744;23.174;2023-03-31T08:00:38;14.60;90.20
15700;DHT22;7950;42.744;23.174;2023-03-31T08:03:08;14.70;90.50
15700;DHT22;7950;42.744;23.174;2023-03-31T08:05:37;14.80;87.70
15700;DHT22;7950;42.744;23.174;2023-03-31T08:08:05;15.00;88.40
15700;DHT22;7950;42.744;23.174;2023-03-31T08:10:33;15.00;87.00
15700;DHT22;7950;42.744;23.174;2023-03-31T08:13:02;15.00;86.80
15700;DHT22;7950;42.744;23.174;2023-03-31T08:15:31;14.80;86.50
15700;DHT22;7950;42.744;23.174;2023-03-31T08:18:00;14.70;88.60
15700;DHT22;7950;42.744;23.174;2023-03-31T08:20:31;14.70;87.10
15700;DHT22;7950;42.744;23.174;2023-03-31T08:23:00;14.90;87.30
15700;DHT22;7950;42.744;23.174;2023-03-31T08:25:28;15.00;85.60
15700;DHT22;7950;42.744;23.174;2023-03-31T08:27:57;15.20;83.20
15700;DHT22;7950;42.744;23.174;2023-03-31T08:30:26;15.20;81.40
15700;DHT22;7950;42.744;23.174;2023-03-31T08:32:54;15.40;84.90
15700;DHT22;7950;42.744;23.174;2023-03-31T08:35:23;15.50;80.50
15700;DHT22;7950;42.744;23.174;2023-03-31T08:37:53;15.60;79.50
15700;DHT22;7950;42.744;23.174;2023-03-31T08:40:23;15.70;79.60
15700;DHT22;7950;42.744;23.174;2023-03-31T08:42:57;15.70;78.40
15700;DHT22;7950;42.744;23.174;2023-03-31T08:45:31;15.90;77.80
15700;DHT22;7950;42.744;23.174;2023-03-31T08:48:06;15.80;75.50
15700;DHT22;7950;42.744;23.174;2023-03-31T08:50:48;15.60;76.10
15700;DHT22;7950;42.744;23.174;2023-03-31T08:53:25;15.30;76.60
15700;DHT22;7950;42.744;23.174;2023-03-31T08:55:57;15.30;76.70
15700;DHT22;7950;42.744;23.174;2023-03-31T08:58:33;15.20;77.20
15700;DHT22;7950;42.744;23.174;2023-03-31T09:01:13;15.10;76.70
15700;DHT22;7950;42.744;23.174;2023-03-31T09:04:06;14.90;77.10
15700;DHT22;7950;42.744;23.174;2023-03-31T09:06:53;14.90;77.90
15700;DHT22;7950;42.744;23.174;2023-03-31T09:09:37;14.90;79.10
15700;DHT22;7950;42.744;23.174;2023-03-31T09:12:20;15.00;77.90
15700;DHT22;7950;42.744;23.174;2023-03-31T09:14:56;15.00;78.20
15700;DHT22;7950;42.744;23.174;2023-03-31T09:17:30;15.10;77.80
15700;DHT22;7950;42.744;23.174;2023-03-31T09:20:04;15.00;78.40
15700;DHT22;7950;42.744;23.174;2023-03-31T09:22:39;14.90;79.30
15700;DHT22;7950;42.744;23.174;2023-03-31T09:25:15;14.90;79.90
15700;DHT22;7950;42.744;23.174;2023-03-31T09:28:03;14.90;79.30
15700;DHT22;7950;42.744;23.174;2023-03-31T09:30:40;14.80;78.90
15700;DHT22;7950;42.744;23.174;2023-03-31T09:33:13;14.80;79.90
15700;DHT22;7950;42.744;23.174;2023-03-31T09:36:12;14.80;79.60
15700;DHT22;7950;42.744;23.174;2023-03-31T09:38:44;14.90;80.20
15700;DHT22;7950;42.744;23.174;2023-03-31T09:41:16;14.90;80.60
15700;DHT22;7950;42.744;23.174;2023-03-31T09:43:46;15.00;82.10
15700;DHT22;7950;42.744;23.174;2023-03-31T09:46:18;15.10;85.10
15700;DHT22;7950;42.744;23.174;2023-03-31T09:48:57;15.10;83.90
15700;DHT22;7950;42.744;23.174;2023-03-31T09:51:33;15.20;83.80
15700;DHT22;7950;42.744;23.174;2023-03-31T09:54:09;15.40;83.50
15700;DHT22;7950;42.744;23.174;2023-03-31T09:56:49;15.40;83.30
15700;DHT22;7950;42.744;23.174;2023-03-31T09:59:22;15.50;81.90
15700;DHT22;7950;42.744;23.174;2023-03-31T10:01:59;15.50;82.80
15700;DHT22;7950;42.744;23.174;2023-03-31T10:04:31;15.60;84.10
15700;DHT22;7950;42.744;23.174;2023-03-31T10:07:03;15.80;83.70
15700;DHT22;7950;42.744;23.174;2023-03-31T10:09:37;16.00;82.40
15700;DHT22;7950;42.744;23.174;2023-03-31T10:12:14;16.10;80.90
15700;DHT22;7950;42.744;23.174;2023-03-31T10:14:48;16.20;81.50
15700;DHT22;7950;42.744;23.174;2023-03-31T10:17:19;16.30;81.20
15700;DHT22;7950;42.744;23.174;2023-03-31T10:19:51;16.30;80.60
15700;DHT22;7950;42.744;23.174;2023-03-31T10:22:28;16.30;78.90
15700;DHT22;7950;42.744;23.174;2023-03-31T10:25:08;16.30;77.50
15700;DHT22;7950;42.744;23.174;2023-03-31T10:27:46;16.30;78.70
15700;DHT22;7950;42.744;23.174;2023-03-31T10:30:20;16.30;76.90
15700;DHT22;7950;42.744;23.174;2023-03-31T10:32:51;16.40;76.80
15700;DHT22;7950;42.744;23.174;2023-03-31T10:35:25;16.40;75.90
15700;DHT22;7950;42.744;23.174;2023-03-31T10:37:58;16.30;75.90
15700;DHT22;7950;42.744;23.174;2023-03-31T10:40:33;16.30;75.90
15700;DHT22;7950;42.744;23.174;2023-03-31T10:43:12;16.30;76.20
15700;DHT22;7950;42.744;23.174;2023-03-31T10:45:47;16.30;75.90
15700;DHT22;7950;42.744;23.174;2023-03-31T10:48:19;16.20;76.20
15700;DHT22;7950;42.744;23.174;2023-03-31T10:50:53;16.20;75.30
15700;DHT22;7950;42.744;23.174;2023-03-31T10:53:48;16.10;77.00
15700;DHT22;7950;42.744;23.174;2023-03-31T10:56:28;16.00;75.40
15700;DHT22;7950;42.744;23.174;2023-03-31T10:59:17;16.10;75.30
15700;DHT22;7950;42.744;23.174;2023-03-31T11:02:30;16.00;76.50
15700;DHT22;7950;42.744;23.174;2023-03-31T11:05:14;16.10;75.40
15700;DHT22;7950;42.744;23.174;2023-03-31T11:08:02;16.00;77.10
15700;DHT22;7950;42.744;23.174;2023-03-31T11:11:05;16.00;76.20
15700;DHT22;7950;42.744;23.174;2023-03-31T11:13:45;16.10;77.70
15700;DHT22;7950;42.744;23.174;2023-03-31T11:16:24;16.20;75.50
15700;DHT22;7950;42.744;23.174;2023-03-31T11:19:09;16.20;77.00
15700;DHT22;7950;42.744;23.174;2023-03-31T11:21:53;16.20;75.10
15700;DHT22;7950;42.744;23.174;2023-03-31T11:27:46;16.30;76.10
15700;DHT22;7950;42.744;23.174;2023-03-31T11:30:25;16.50;76.90
15700;DHT22;7950;42.744;23.174;2023-03-31T11:33:07;16.70;76.10
15700;DHT22;7950;42.744;23.174;2023-03-31T11:36:02;16.80;76.30
15700;DHT22;7950;42.744;23.174;2023-03-31T11:38:49;16.90;74.20
15700;DHT22;7950;42.744;23.174;2023-03-31T11:41:32;16.90;73.30
15700;DHT22;7950;42.744;23.174;2023-03-31T11:44:05;16.90;73.90
15700;DHT22;7950;42.744;23.174;2023-03-31T11:46:40;16.90;74.30
15700;DHT22;7950;42.744;23.174;2023-03-31T11:49:18;16.90;76.30
15700;DHT22;7950;42.744;23.174;2023-03-31T11:51:52;17.00;74.10
15700;DHT22;7950;42.744;23.174;2023-03-31T11:54:28;17.00;73.70
15700;DHT22;7950;42.744;23.174;2023-03-31T11:57:02;17.00;74.80
15700;DHT22;7950;42.744;23.174;2023-03-31T11:59:39;17.10;73.00
15700;DHT22;7950;42.744;23.174;2023-03-31T12:02:16;17.20;74.60
15700;DHT22;7950;42.744;23.174;2023-03-31T12:04:52;17.30;73.60
15700;DHT22;7950;42.744;23.174;2023-03-31T12:07:25;17.40;72.90
15700;DHT22;7950;42.744;23.174;2023-03-31T12:10:28;17.50;72.10
15700;DHT22;7950;42.744;23.174;2023-03-31T12:16:15;17.70;70.00
15700;DHT22;7950;42.744;23.174;2023-03-31T12:18:56;17.60;70.50
15700;DHT22;7950;42.744;23.174;2023-03-31T12:21:32;17.50;70.50
15700;DHT22;7950;42.744;23.174;2023-03-31T12:24:38;17.40;71.00
15700;DHT22;7950;42.744;23.174;2023-03-31T12:27:12;17.30;70.90
15700;DHT22;7950;42.744;23.174;2023-03-31T12:29:47;17.10;70.50
15700;DHT22;7950;42.744;23.174;2023-03-31T12:32:24;17.10;71.30
15700;DHT22;7950;42.744;23.174;2023-03-31T12:34:58;17.10;74.50
15700;DHT22;7950;42.744;23.174;2023-03-31T12:37:53;17.40;71.80
15700;DHT22;7950;42.744;23.174;2023-03-31T12:40:39;17.80;71.10
15700;DHT22;7950;42.744;23.174;2023-03-31T12:43:49;18.00;70.10
15700;DHT22;7950;42.744;23.174;2023-03-31T12:50:10;18.30;68.70
15700;DHT22;7950;42.744;23.174;2023-03-31T12:52:55;18.40;68.50
15700;DHT22;7950;42.744;23.174;2023-03-31T12:55:36;18.50;68.20
15700;DHT22;7950;42.744;23.174;2023-03-31T12:58:44;18.50;66.70
15700;DHT22;7950;42.744;23.174;2023-03-31T13:01:16;18.60;66.70
15700;DHT22;7950;42.744;23.174;2023-03-31T13:03:51;18.80;66.50
15700;DHT22;7950;42.744;23.174;2023-03-31T13:06:55;19.00;66.80
15700;DHT22;7950;42.744;23.174;2023-03-31T13:09:47;19.20;65.70
15700;DHT22;7950;42.744;23.174;2023-03-31T13:12:21;19.30;66.00
15700;DHT22;7950;42.744;23.174;2023-03-31T13:14:52;19.40;65.40
15700;DHT22;7950;42.744;23.174;2023-03-31T13:17:28;19.40;65.90
15700;DHT22;7950;42.744;23.174;2023-03-31T13:20:23;19.40;65.00
15700;DHT22;7950;42.744;23.174;2023-03-31T13:23:08;19.20;64.20
15700;DHT22;7950;42.744;23.174;2023-03-31T13:25:48;19.10;63.80
15700;DHT22;7950;42.744;23.174;2023-03-31T13:28:25;19.00;65.00
15700;DHT22;7950;42.744;23.174;2023-03-31T13:31:01;19.00;64.40
15700;DHT22;7950;42.744;23.174;2023-03-31T13:33:34;18.90;66.20
15700;DHT22;7950;42.744;23.174;2023-03-31T13:43:18;18.30;65.60
15700;DHT22;7950;42.744;23.174;2023-03-31T13:46:15;17.90;66.30
15700;DHT22;7950;42.744;23.174;2023-03-31T13:52:34;17.50;68.60
15700;DHT22;7950;42.744;23.174;2023-03-31T13:58:46;17.80;70.70
15700;DHT22;7950;42.744;23.174;2023-03-31T14:01:49;18.10;67.80
15700;DHT22;7950;42.744;23.174;2023-03-31T14:07:54;18.50;66.50
15700;DHT22;7950;42.744;23.174;2023-03-31T14:10:51;18.30;66.70
15700;DHT22;7950;42.744;23.174;2023-03-31T14:13:24;18.10;67.30
15700;DHT22;7950;42.744;23.174;2023-03-31T14:15:58;17.90;68.30
15700;DHT22;7950;42.744;23.174;2023-03-31T14:18:29;17.70;67.90
15700;DHT22;7950;42.744;23.174;2023-03-31T14:24:25;17.30;69.10
15700;DHT22;7950;42.744;23.174;2023-03-31T14:27:06;17.10;69.80
15700;DHT22;7950;42.744;23.174;2023-03-31T14:29:48;17.00;70.10
15700;DHT22;7950;42.744;23.174;2023-03-31T14:32:30;16.80;70.80
15700;DHT22;7950;42.744;23.174;2023-03-31T14:35:23;16.70;71.40
15700;DHT22;7950;42.744;23.174;2023-03-31T14:37:56;16.60;72.30
15700;DHT22;7950;42.744;23.174;2023-03-31T14:40:25;16.50;72.80
15700;DHT22;7950;42.744;23.174;2023-03-31T14:42:53;16.40;73.30
15700;DHT22;7950;42.744;23.174;2023-03-31T14:45:24;16.40;73.90
15700;DHT22;7950;42.744;23.174;2023-03-31T14:48:07;16.40;74.70
15700;DHT22;7950;42.744;23.174;2023-03-31T14:50:42;16.50;75.80
15700;DHT22;7950;42.744;23.174;2023-03-31T14:53:15;16.60;76.30
15700;DHT22;7950;42.744;23.174;2023-03-31T14:55:46;16.90;76.50
15700;DHT22;7950;42.744;23.174;2023-03-31T14:58:27;17.10;75.00
15700;DHT22;7950;42.744;23.174;2023-03-31T15:01:02;17.20;73.70
15700;DHT22;7950;42.744;23.174;2023-03-31T15:03:35;17.40;71.80
15700;DHT22;7950;42.744;23.174;2023-03-31T15:06:09;17.40;71.90
15700;DHT22;7950;42.744;23.174;2023-03-31T15:08:38;17.50;71.60
15700;DHT22;7950;42.744;23.174;2023-03-31T15:11:18;17.60;71.40
15700;DHT22;7950;42.744;23.174;2023-03-31T15:13:49;17.70;71.50
15700;DHT22;7950;42.744;23.174;2023-03-31T15:16:34;17.80;70.70
15700;DHT22;7950;42.744;23.174;2023-03-31T15:19:14;17.80;71.30
15700;DHT22;7950;42.744;23.174;2023-03-31T15:22:09;17.80;70.60
15700;DHT22;7950;42.744;23.174;2023-03-31T15:24:42;17.90;70.80
15700;DHT22;7950;42.744;23.174;2023-03-31T15:27:14;17.90;70.10
15700;DHT22;7950;42.744;23.174;2023-03-31T15:30:02;17.80;70.10
15700;DHT22;7950;42.744;23.174;2023-03-31T15:32:35;17.70;68.70
15700;DHT22;7950;42.744;23.174;2023-03-31T15:35:19;17.60;68.50
15700;DHT22;7950;42.744;23.174;2023-03-31T15:37:59;17.60;68.50
15700;DHT22;7950;42.744;23.174;2023-03-31T15:40:34;17.60;68.70
15700;DHT22;7950;42.744;23.174;2023-03-31T15:43:07;17.60;68.50
15700;DHT22;7950;42.744;23.174;2023-03-31T15:45:52;17.60;69.00
15700;DHT22;7950;42.744;23.174;2023-03-31T15:48:24;17.50;70.20
15700;DHT22;7950;42.744;23.174;2023-03-31T15:51:03;17.50;69.20
15700;DHT22;7950;42.744;23.174;2023-03-31T15:53:36;17.40;68.60
15700;DHT22;7950;42.744;23.174;2023-03-31T15:56:28;17.40;68.50
15700;DHT22;7950;42.744;23.174;2023-03-31T15:59:03;17.40;70.10
15700;DHT22;7950;42.744;23.174;2023-03-31T16:01:36;17.30;70.70
15700;DHT22;7950;42.744;23.174;2023-03-31T16:04:10;17.20;71.50
15700;DHT22;7950;42.744;23.174;2023-03-31T16:06:44;17.10;71.80
15700;DHT22;7950;42.744;23.174;2023-03-31T16:09:20;17.10;72.10
15700;DHT22;7950;42.744;23.174;2023-03-31T16:11:55;16.90;72.30
15700;DHT22;7950;42.744;23.174;2023-03-31T16:14:30;16.80;72.70
15700;DHT22;7950;42.744;23.174;2023-03-31T16:17:04;16.70;73.20
15700;DHT22;7950;42.744;23.174;2023-03-31T16:19:39;16.60;73.80
15700;DHT22;7950;42.744;23.174;2023-03-31T16:22:16;16.40;74.00
15700;DHT22;7950;42.744;23.174;2023-03-31T16:24:47;16.30;74.70
15700;DHT22;7950;42.744;23.174;2023-03-31T16:27:17;16.10;76.00
15700;DHT22;7950;42.744;23.174;2023-03-31T16:29:46;16.00;77.00
15700;DHT22;7950;42.744;23.174;2023-03-31T16:32:15;15.80;76.90
15700;DHT22;7950;42.744;23.174;2023-03-31T16:34:57;15.70;78.30
15700;DHT22;7950;42.744;23.174;2023-03-31T16:37:28;15.50;80.40
15700;DHT22;7950;42.744;23.174;2023-03-31T16:39:57;15.40;80.60
15700;DHT22;7950;42.744;23.174;2023-03-31T16:42:25;15.20;81.30
15700;DHT22;7950;42.744;23.174;2023-03-31T16:44:54;15.10;83.00
15700;DHT22;7950;42.744;23.174;2023-03-31T16:47:40;14.90;85.80
15700;DHT22;7950;42.744;23.174;2023-03-31T16:50:14;14.70;89.10
15700;DHT22;7950;42.744;23.174;2023-03-31T16:52:44;14.60;91.20
15700;DHT22;7950;42.744;23.174;2023-03-31T16:55:13;14.40;92.00
15700;DHT22;7950;42.744;23.174;2023-03-31T16:57:41;14.20;92.90
15700;DHT22;7950;42.744;23.174;2023-03-31T17:00:11;14.00;93.40
15700;DHT22;7950;42.744;23.174;2023-03-31T17:02:40;13.80;94.60
15700;DHT22;7950;42.744;23.174;2023-03-31T17:05:09;13.70;95.70
15700;DHT22;7950;42.744;23.174;2023-03-31T17:07:39;13.50;96.50
15700;DHT22;7950;42.744;23.174;2023-03-31T17:10:10;13.30;97.30
15700;DHT22;7950;42.744;23.174;2023-03-31T17:12:39;13.20;98.40